Mounds, Oklahoma
Current Conditions -  °F | °C
As of 7:53 AM on Sunday 23 Nov 2014 (Local Time) from KRVS Reporting Station
Overcast Overcast  
Wind Chill: 57°   Ceiling: 1500
Heat Index: 57°   Visibility: 10mi
Dew Point: 55°   Wind: 8mph
Humidity: 93%   Direction: 150°SSE
Pressure: 29.5"   Gusts: NA
Location:  35.88°N, 96.06°W
Report Text: KRVS 231353Z 15007KT 10SM BKN015 OVC027 14/13 A2950 RMK AO2 SLP996 T01390128
Loading
Personal Weather Stations






























Interactive Weather Map New forecast layout! Learn more

10-Day Weather Forecast

Advertisements
Track Severe Weather on mobile